Time;durP1;ratioP1;P1;durP2;ratioP2;P2;SDS_P1;SDS_P2;PMS_P1;PMS_P2;Temp;Humidity;BMP_temperature;BMP_pressure;BME280_temperature;BME280_humidity;BME280_pressure;Samples;Min_cycle;Max_cycle;Signal;HPM_P1;HPM_P2
2021/10/08 00:02:21;;;;;;;11.63;8.93;;;12.40;80.80;;;10.63;89.88;96969.56;4970225;28;20051;-64
2021/10/08 00:04:47;;;;;;;10.55;7.95;;;12.30;81.00;;;10.62;89.77;96973.19;4988432;28;20027;-64
2021/10/08 00:07:12;;;;;;;10.40;8.40;;;12.20;81.10;;;10.60;89.46;96970.72;4980449;28;20030;-64
2021/10/08 00:09:38;;;;;;;13.90;9.25;;;12.30;81.20;;;10.60;89.36;96964.66;4988229;28;20030;-64
2021/10/08 00:12:04;;;;;;;11.32;9.60;;;12.20;81.00;;;10.60;89.30;96967.28;4988228;28;20054;-64
2021/10/08 00:14:30;;;;;;;10.13;9.13;;;12.30;80.80;;;10.58;89.61;96967.44;4969300;28;20122;-64
2021/10/08 00:16:56;;;;;;;13.85;9.93;;;12.30;80.80;;;10.56;90.25;96964.16;4948618;28;20031;-65
2021/10/08 00:19:22;;;;;;;11.30;9.63;;;12.20;81.10;;;10.56;90.22;96953.66;4987426;28;20189;-63
2021/10/08 00:21:47;;;;;;;12.27;9.25;;;12.20;81.20;;;10.54;90.64;96960.88;4988666;28;20030;-65
2021/10/08 00:24:13;;;;;;;11.57;9.40;;;12.20;81.40;;;10.56;89.67;96958.09;4971855;28;20050;-64
2021/10/08 00:26:40;;;;;;;12.43;9.65;;;12.20;81.30;;;10.56;89.57;96968.63;4988577;28;20184;-63
2021/10/08 00:29:09;;;;;;;11.73;9.77;;;12.20;81.20;;;10.56;90.56;96958.91;4971164;28;20038;-64
2021/10/08 00:31:35;;;;;;;10.68;9.27;;;12.20;80.90;;;10.55;90.48;96961.72;4936595;28;20552;-64
2021/10/08 00:34:01;;;;;;;12.00;10.10;;;12.20;81.10;;;10.55;90.43;96964.34;4967573;28;20054;-63
2021/10/08 00:36:27;;;;;;;12.13;10.20;;;12.20;81.10;;;10.53;89.58;96963.69;4953926;28;20070;-63
2021/10/08 00:38:53;;;;;;;15.73;9.55;;;12.20;81.20;;;10.52;91.05;96959.41;4968789;28;20093;-64
2021/10/08 00:41:20;;;;;;;12.13;9.77;;;12.20;81.10;;;10.53;90.92;96953.16;4973575;28;20061;-63
2021/10/08 00:43:46;;;;;;;11.07;9.93;;;12.20;81.20;;;10.52;90.67;96954.97;4988372;28;20404;-64
2021/10/08 00:46:12;;;;;;;14.10;10.60;;;12.20;81.10;;;10.52;89.72;96962.06;4987674;28;20030;-63
2021/10/08 00:48:38;;;;;;;12.45;10.40;;;12.20;81.10;;;10.53;90.73;96961.06;4988276;28;20050;-64
2021/10/08 00:51:04;;;;;;;10.32;9.38;;;12.20;81.30;;;10.52;90.52;96956.78;4968594;28;20114;-63
2021/10/08 00:53:29;;;;;;;11.15;9.98;;;12.20;80.80;;;10.52;90.02;96956.78;4955747;28;20554;-64
2021/10/08 00:55:55;;;;;;;12.93;10.20;;;12.20;81.20;;;10.52;89.85;96956.78;4988306;28;20565;-64
2021/10/08 00:58:21;;;;;;;12.63;10.18;;;12.20;81.00;;;10.52;90.66;96951.53;4971739;28;20066;-64
2021/10/08 01:00:48;;;;;;;12.63;10.20;;;12.20;80.80;;;10.51;89.66;96950.72;4971414;28;20088;-63
2021/10/08 01:03:14;;;;;;;12.30;9.82;;;12.20;81.00;;;10.52;90.73;96951.53;4955887;28;20570;-64
2021/10/08 01:05:41;;;;;;;10.90;9.80;;;12.20;81.00;;;10.53;89.67;96947.91;4978065;28;20042;-64
2021/10/08 01:08:07;;;;;;;11.88;10.05;;;12.20;80.80;;;10.53;89.83;96955.78;4966206;28;20026;-64
2021/10/08 01:10:33;;;;;;;11.60;10.40;;;12.20;80.90;;;10.53;89.69;96947.91;4961516;28;20035;-64
2021/10/08 01:12:59;;;;;;;10.70;9.52;;;12.20;80.70;;;10.52;90.34;96952.34;4949899;28;20152;-64
2021/10/08 01:15:25;;;;;;;11.07;9.88;;;12.20;80.50;;;10.51;89.23;96944.63;4988926;28;20045;-64
2021/10/08 01:17:54;;;;;;;13.45;10.32;;;12.20;80.80;;;10.52;89.60;96946.25;4959424;28;20188;-64
2021/10/08 01:20:21;;;;;;;11.23;10.02;;;12.20;80.70;;;10.52;90.50;96952.34;4942887;28;20042;-63
2021/10/08 01:22:47;;;;;;;11.02;9.77;;;12.20;80.90;;;10.52;90.47;96951.53;4959142;28;20034;-64
2021/10/08 01:25:13;;;;;;;13.00;10.23;;;12.20;80.70;;;10.51;90.48;96953.34;4991050;28;20062;-64
2021/10/08 01:27:39;;;;;;;12.23;10.00;;;12.20;80.80;;;10.50;90.88;96949.06;4958826;28;20034;-63
2021/10/08 01:30:07;;;;;;;11.07;9.98;;;12.20;81.00;;;10.51;90.09;96940.19;4942979;28;20125;-65
2021/10/08 01:32:33;;;;;;;12.25;10.52;;;12.20;80.90;;;10.51;91.03;96945.44;4959793;28;20046;-65
2021/10/08 01:34:59;;;;;;;13.70;9.98;;;12.20;81.10;;;10.51;89.76;96942.00;4990487;23;20061;-65
2021/10/08 01:37:25;;;;;;;13.90;10.30;;;12.20;80.80;;;10.51;89.80;96939.38;4985988;28;20052;-65
2021/10/08 01:39:50;;;;;;;13.93;9.52;;;12.20;80.90;;;10.50;90.93;96942.97;4985338;28;20113;-65
2021/10/08 01:42:16;;;;;;;10.70;9.27;;;12.20;80.90;;;10.50;89.94;96932.47;5006126;28;20033;-65
2021/10/08 01:44:42;;;;;;;11.45;10.10;;;12.30;80.90;;;10.50;90.94;96932.47;4978754;28;20169;-66
2021/10/08 01:47:07;;;;;;;14.18;10.57;;;12.20;80.90;;;10.49;90.25;96936.09;4994558;28;20042;-65
2021/10/08 01:49:33;;;;;;;10.93;9.77;;;12.20;80.90;;;10.49;91.24;96938.72;4976955;28;20126;-65
2021/10/08 01:51:59;;;;;;;11.82;9.57;;;12.20;81.10;;;10.47;90.73;96933.63;4958613;28;20109;-65
2021/10/08 01:54:25;;;;;;;11.02;9.85;;;12.20;81.20;;;10.51;91.23;96936.72;4967207;28;20034;-65
2021/10/08 01:56:51;;;;;;;11.57;9.90;;;12.30;81.20;;;10.51;91.19;96939.38;4980603;28;20415;-65
2021/10/08 01:59:16;;;;;;;11.23;9.80;;;12.20;81.20;;;10.50;91.30;96927.19;4961312;28;20129;-65
2021/10/08 02:01:42;;;;;;;12.68;10.15;;;12.20;81.30;;;10.46;91.23;96925.91;4969232;28;20034;-65
2021/10/08 02:04:08;;;;;;;12.32;10.23;;;12.20;81.50;;;10.52;91.13;96930.47;4993712;28;20038;-64
2021/10/08 02:06:34;;;;;;;12.00;10.10;;;12.30;81.50;;;10.53;90.93;96926.88;4969888;28;20073;-65
2021/10/08 02:09:00;;;;;;;10.90;9.80;;;12.30;81.40;;;10.51;90.43;96923.59;4961201;28;20033;-65
2021/10/08 02:11:26;;;;;;;10.05;9.05;;;12.20;81.10;;;10.52;91.28;96925.22;4961100;28;20046;-65
2021/10/08 02:13:52;;;;;;;10.90;9.52;;;12.20;81.20;;;10.53;90.05;96932.94;4977981;28;20034;-65
2021/10/08 02:16:20;;;;;;;10.65;9.55;;;12.30;81.20;;;10.54;91.48;96936.41;5011419;28;20061;-65
2021/10/08 02:18:49;;;;;;;10.57;8.70;;;12.30;81.10;;;10.55;91.22;96935.41;4992831;28;20142;-65
2021/10/08 02:21:15;;;;;;;11.68;9.32;;;12.30;81.10;;;10.57;91.32;96933.41;4976351;28;20042;-65
2021/10/08 02:23:41;;;;;;;10.80;8.82;;;12.30;80.80;;;10.57;89.93;96933.41;4956878;28;20041;-65
2021/10/08 02:26:06;;;;;;;10.90;9.80;;;12.30;81.00;;;10.56;91.41;96932.59;4984816;28;20454;-65
2021/10/08 02:28:32;;;;;;;10.88;9.57;;;12.30;80.90;;;10.56;90.77;96939.69;4993667;28;20411;-65
2021/10/08 02:30:58;;;;;;;12.90;9.75;;;12.30;81.00;;;10.54;89.99;96939.84;4993342;28;20041;-65
2021/10/08 02:33:24;;;;;;;10.77;9.38;;;12.20;80.90;;;10.55;91.31;96941.47;4976865;28;20033;-64
2021/10/08 02:35:50;;;;;;;9.98;8.95;;;12.30;80.80;;;10.56;90.29;96939.69;4989539;28;20270;-65
2021/10/08 02:38:17;;;;;;;10.18;9.07;;;12.20;80.90;;;10.55;90.80;96941.47;4970194;28;20113;-65
2021/10/08 02:40:43;;;;;;;9.80;8.73;;;12.20;81.10;;;10.53;90.96;96932.13;4973482;28;20035;-65
2021/10/08 02:43:09;;;;;;;9.52;8.50;;;12.20;81.10;;;10.53;90.72;96938.19;4970118;28;20037;-65
2021/10/08 02:45:35;;;;;;;10.18;8.80;;;12.30;81.10;;;10.55;91.31;96941.47;4957413;28;20732;-65
2021/10/08 02:48:00;;;;;;;12.80;9.00;;;12.30;81.10;;;10.55;90.99;96935.41;5001712;28;20038;-65
2021/10/08 02:50:26;;;;;;;9.52;8.63;;;12.30;81.10;;;10.55;90.47;96938.03;4976635;28;20060;-65
2021/10/08 02:52:52;;;;;;;11.10;8.90;;;12.30;81.20;;;10.55;90.84;96930.13;4977370;28;20042;-65
2021/10/08 02:55:18;;;;;;;9.80;8.48;;;12.30;81.20;;;10.56;91.77;96934.41;4991576;28;20038;-65
2021/10/08 02:57:44;;;;;;;14.45;8.55;;;12.30;81.30;;;10.52;91.49;96922.59;4974422;28;20053;-65
2021/10/08 03:00:10;;;;;;;9.57;7.72;;;12.30;81.20;;;10.57;90.56;96933.41;4976377;28;20034;-65
2021/10/08 03:02:36;;;;;;;9.85;8.00;;;12.40;81.20;;;10.58;91.31;96930.63;4963428;28;20117;-65
2021/10/08 03:05:01;;;;;;;8.95;8.00;;;12.40;81.20;;;10.60;91.65;96933.09;5010477;28;20034;-65
2021/10/08 03:07:27;;;;;;;11.05;8.00;;;12.30;81.30;;;10.62;91.34;96939.00;4967747;28;20033;-65
2021/10/08 03:09:53;;;;;;;10.32;7.85;;;12.40;81.10;;;10.62;90.97;96936.34;5009966;28;20044;-65
2021/10/08 03:12:19;;;;;;;10.07;8.20;;;12.40;81.10;;;10.62;90.88;96936.34;4976917;28;20030;-65
2021/10/08 03:14:45;;;;;;;11.57;8.25;;;12.40;81.00;;;10.62;90.92;96936.34;4961029;28;20033;-65
2021/10/08 03:17:11;;;;;;;9.52;8.35;;;12.40;81.00;;;10.63;90.87;96933.56;4976445;28;20034;-66
2021/10/08 03:19:37;;;;;;;9.75;7.93;;;12.40;81.20;;;10.63;91.73;96932.75;4975975;28;20052;-65
2021/10/08 03:22:03;;;;;;;10.38;8.00;;;12.40;81.30;;;10.65;90.85;96930.78;4960661;28;20126;-65
2021/10/08 03:24:29;;;;;;;9.02;7.75;;;12.40;81.30;;;10.65;91.83;96942.13;4992505;28;20411;-65
2021/10/08 03:26:54;;;;;;;11.10;7.95;;;12.40;81.30;;;10.66;90.88;96937.69;4960216;28;20122;-65
2021/10/08 03:29:20;;;;;;;9.23;8.32;;;12.40;81.40;;;10.66;91.00;96941.13;4991848;28;20045;-65
2021/10/08 03:31:46;;;;;;;10.55;8.82;;;12.40;81.10;;;10.67;91.00;96928.81;4960595;28;20037;-65
2021/10/08 03:34:11;;;;;;;9.38;7.93;;;12.40;81.30;;;10.66;90.77;96933.25;4992364;28;20030;-65
2021/10/08 03:36:49;;;;;;;10.32;8.45;;;12.40;81.20;;;10.68;91.96;96935.72;4984393;28;20033;-65
2021/10/08 03:39:19;;;;;;;10.18;8.32;;;12.40;81.30;;;10.66;91.61;96927.16;4989321;28;20511;-65
2021/10/08 03:41:45;;;;;;;9.88;8.50;;;12.40;81.30;;;10.65;91.82;96931.63;4957529;28;20044;-67
2021/10/08 03:44:11;;;;;;;12.27;8.27;;;12.40;81.40;;;10.67;91.29;96929.63;4947720;28;20034;-67
2021/10/08 03:46:47;;;;;;;10.45;8.25;;;12.50;81.40;;;10.67;91.43;96934.88;4974011;28;20470;-67
2021/10/08 03:49:14;;;;;;;10.80;8.05;;;12.50;81.50;;;10.67;91.19;96932.25;4989914;28;20034;-67
2021/10/08 03:51:40;;;;;;;9.93;8.35;;;12.40;81.50;;;10.68;91.20;96927.81;4966610;28;20038;-64
2021/10/08 03:54:06;;;;;;;9.65;8.10;;;12.40;81.40;;;10.68;91.26;96930.44;4971635;28;20061;-68
2021/10/08 03:56:32;;;;;;;11.82;8.60;;;12.50;81.30;;;10.68;91.56;96936.53;4967829;28;20048;-65
2021/10/08 03:58:58;;;;;;;10.90;8.35;;;12.50;81.50;;;10.68;91.38;96928.63;4975380;28;20081;-65
2021/10/08 04:01:24;;;;;;;9.13;8.10;;;12.50;81.60;;;10.68;91.47;96919.94;4970402;28;20041;-65
2021/10/08 04:03:50;;;;;;;11.32;8.70;;;12.50;81.50;;;10.68;91.29;96931.28;4968083;28;20156;-65
2021/10/08 04:06:16;;;;;;;9.98;8.48;;;12.50;81.40;;;10.73;91.85;96938.66;4975892;28;20034;-65
2021/10/08 04:08:42;;;;;;;12.77;8.88;;;12.50;81.40;;;10.73;91.39;96941.28;4974382;28;20030;-64
2021/10/08 04:11:07;;;;;;;10.77;8.98;;;12.50;81.50;;;10.71;92.09;96940.63;4991722;28;20038;-65
2021/10/08 04:13:33;;;;;;;9.98;8.75;;;12.40;81.40;;;10.69;91.04;96940.81;4984631;28;20042;-65
2021/10/08 04:15:59;;;;;;;9.93;8.93;;;12.40;81.50;;;10.67;91.96;96934.88;4973517;28;20077;-65
2021/10/08 04:18:25;;;;;;;10.27;9.18;;;12.40;81.60;;;10.67;92.03;96934.06;4963604;28;20037;-65
2021/10/08 04:20:50;;;;;;;13.05;9.90;;;12.40;81.50;;;10.64;91.67;96927.34;4975980;28;20566;-65
2021/10/08 04:23:16;;;;;;;13.15;9.18;;;12.50;81.40;;;10.64;91.95;96934.41;4958819;28;20041;-65
2021/10/08 04:25:42;;;;;;;10.80;9.43;;;12.40;81.40;;;10.64;92.24;96931.78;4955734;28;20035;-65
2021/10/08 04:28:08;;;;;;;10.65;8.88;;;12.40;81.50;;;10.65;91.22;96936.06;4974552;28;20113;-65
2021/10/08 04:30:34;;;;;;;12.30;9.20;;;12.40;81.50;;;10.62;91.51;96923.22;4975191;28;20046;-65
2021/10/08 04:32:59;;;;;;;10.00;8.48;;;12.40;81.50;;;10.62;91.78;96926.66;4942807;28;20041;-65
2021/10/08 04:35:25;;;;;;;10.40;9.30;;;12.40;81.60;;;10.64;91.78;96923.88;4955364;28;20038;-65
2021/10/08 04:37:51;;;;;;;11.45;9.52;;;12.40;81.80;;;10.63;91.43;96927.47;4931408;28;20167;-65
2021/10/08 04:40:17;;;;;;;10.77;9.27;;;12.40;81.80;;;10.65;91.58;96936.06;4971035;28;20034;-65
2021/10/08 04:42:42;;;;;;;11.70;9.68;;;12.40;81.90;;;10.64;92.62;96937.03;4966344;28;20034;-64
2021/10/08 04:45:09;;;;;;;15.73;9.90;;;12.40;82.10;;;10.63;92.87;96932.75;4964836;28;20429;-65
2021/10/08 04:47:34;;;;;;;12.57;9.25;;;12.40;82.10;;;10.64;92.21;96934.41;4960568;28;20708;-65
2021/10/08 04:50:00;;;;;;;11.85;9.60;;;12.40;82.10;;;10.64;92.94;96934.41;4975455;28;20184;-66
2021/10/08 04:52:26;;;;;;;14.00;10.00;;;12.40;82.20;;;10.63;92.84;96933.56;4977998;28;20038;-66
2021/10/08 04:54:55;;;;;;;11.07;9.80;;;12.40;82.20;;;10.64;92.83;96929.16;4978838;28;20040;-68
2021/10/08 04:57:21;;;;;;;18.85;14.98;;;12.40;82.40;;;10.62;92.38;96931.91;4962739;28;20037;-65
2021/10/08 04:59:47;;;;;;;28.17;22.25;;;12.40;82.40;;;10.62;93.35;96926.66;5012258;28;20615;-66
2021/10/08 05:02:12;;;;;;;15.07;12.65;;;12.40;82.30;;;10.64;92.68;96934.41;4977057;28;20138;-67
2021/10/08 05:04:38;;;;;;;13.05;11.45;;;12.40;82.20;;;10.65;93.13;96926.34;4978588;28;20205;-68
2021/10/08 05:07:04;;;;;;;14.02;11.07;;;12.40;82.30;;;10.65;93.01;96933.41;4999262;28;20096;-66
2021/10/08 05:09:29;;;;;;;11.90;10.50;;;12.50;82.20;;;10.66;93.32;96933.25;4958464;28;20097;-66
2021/10/08 05:11:55;;;;;;;11.50;9.88;;;12.50;82.30;;;10.64;92.99;96932.59;4985877;28;20355;-67
2021/10/08 05:14:21;;;;;;;13.20;10.30;;;12.50;82.20;;;10.66;92.99;96935.06;5012379;28;20042;-67
2021/10/08 05:16:47;;;;;;;12.60;10.82;;;12.40;82.30;;;10.67;93.98;96936.69;4972395;28;20455;-62
2021/10/08 05:19:12;;;;;;;11.45;10.27;;;12.50;82.30;;;10.68;92.75;96935.72;4987184;28;20323;-65
2021/10/08 05:21:38;;;;;;;12.30;10.55;;;12.50;82.30;;;10.65;93.00;96926.34;5002834;28;20918;-65
2021/10/08 05:24:04;;;;;;;12.32;10.27;;;12.40;82.30;;;10.67;93.12;96928.81;4985727;28;20079;-65
2021/10/08 05:26:30;;;;;;;13.90;11.38;;;12.50;82.30;;;10.67;93.38;96929.63;4970259;28;20062;-66
2021/10/08 05:28:56;;;;;;;14.30;11.45;;;12.50;82.30;;;10.68;93.14;96930.44;4965822;28;20034;-64
2021/10/08 05:31:21;;;;;;;13.13;11.15;;;12.50;82.30;;;10.69;93.43;96937.34;5006378;28;20034;-65
2021/10/08 05:33:47;;;;;;;14.60;11.40;;;12.50;82.30;;;10.67;93.80;96920.91;4974676;28;20574;-65
2021/10/08 05:36:13;;;;;;;32.33;27.15;;;12.50;82.20;;;10.69;93.05;96926.81;4972236;28;20095;-64
2021/10/08 05:38:39;;;;;;;26.05;23.08;;;12.50;82.20;;;10.69;93.26;96932.09;4979168;28;20031;-65
2021/10/08 05:41:04;;;;;;;21.80;17.42;;;12.50;82.20;;;10.71;92.69;96935.38;4961527;28;20034;-66
2021/10/08 05:43:30;;;;;;;17.52;15.63;;;12.50;82.00;;;10.71;93.29;96936.19;4960033;28;20483;-67
2021/10/08 05:45:56;;;;;;;22.40;18.88;;;12.50;81.90;;;10.70;93.33;96934.56;4973555;28;20030;-67
2021/10/08 05:48:22;;;;;;;18.92;15.77;;;12.60;81.90;;;10.72;93.07;96939.63;4958758;28;20033;-66
2021/10/08 05:50:47;;;;;;;14.45;12.82;;;12.60;81.90;;;10.73;92.93;96942.09;4975460;28;20041;-66
2021/10/08 05:53:13;;;;;;;14.02;12.07;;;12.60;81.60;;;10.72;92.32;96948.34;4993169;28;20096;-65
2021/10/08 05:55:39;;;;;;;13.48;11.68;;;12.60;81.50;;;10.73;93.15;96939.47;4996366;28;20066;-67
2021/10/08 05:58:08;;;;;;;17.40;12.05;;;12.60;81.60;;;10.74;92.33;96946.38;4981044;28;20064;-66
2021/10/08 06:00:35;;;;;;;13.80;11.95;;;12.60;81.70;;;10.77;92.54;96945.22;4942756;28;20484;-66
2021/10/08 06:03:04;;;;;;;15.65;11.85;;;12.60;81.60;;;10.80;92.61;96949.31;5012616;28;20053;-67
2021/10/08 06:05:36;;;;;;;15.13;10.98;;;12.60;81.40;;;10.80;93.07;96950.13;4972968;28;20046;-68
2021/10/08 06:08:03;;;;;;;15.52;11.80;;;12.60;81.40;;;10.82;92.07;96945.50;4940528;28;20026;-67
2021/10/08 06:10:29;;;;;;;13.65;11.75;;;12.70;81.30;;;10.84;92.03;96946.16;4973235;28;20120;-67
2021/10/08 06:12:55;;;;;;;13.60;12.20;;;12.70;81.30;;;10.86;92.21;96948.63;4968686;28;20179;-66
2021/10/08 06:15:21;;;;;;;13.05;11.05;;;12.70;81.30;;;10.85;91.96;96950.44;4992396;28;20041;-67
2021/10/08 06:17:46;;;;;;;14.80;10.93;;;12.70;81.10;;;10.87;92.48;96953.75;4959520;28;20092;-66
2021/10/08 06:20:12;;;;;;;13.85;11.20;;;12.70;81.20;;;10.89;92.76;96962.28;4973223;28;20045;-66
2021/10/08 06:22:39;;;;;;;12.70;10.32;;;12.70;81.10;;;10.91;91.78;96955.03;5000916;28;20038;-65
2021/10/08 06:25:05;;;;;;;15.48;11.48;;;12.70;81.20;;;10.93;92.88;96960.97;4968802;28;20061;-64
2021/10/08 06:27:31;;;;;;;14.07;11.07;;;12.80;81.30;;;10.95;92.72;96950.25;4998009;28;20529;-66
2021/10/08 06:29:57;;;;;;;13.57;10.77;;;12.80;81.10;;;10.98;91.92;96957.81;4968721;28;20034;-66
2021/10/08 06:32:23;;;;;;;12.50;11.18;;;12.80;81.10;;;10.96;91.97;96955.34;4940217;28;20062;-64
2021/10/08 06:34:48;;;;;;;15.18;11.48;;;12.80;80.90;;;11.00;91.85;96959.28;4960016;28;20053;-66
2021/10/08 06:37:14;;;;;;;16.00;11.30;;;12.80;80.60;;;11.01;91.69;96953.03;4975133;28;20033;-65
2021/10/08 06:39:40;;;;;;;11.93;10.57;;;12.80;80.60;;;11.02;91.92;96959.94;4959333;28;20443;-66
2021/10/08 06:42:06;;;;;;;12.02;10.82;;;12.80;80.60;;;11.04;91.53;96968.47;4992647;28;20420;-65
2021/10/08 06:44:32;;;;;;;12.73;10.05;;;12.90;80.30;;;11.08;91.95;96957.59;5009053;28;20045;-64
2021/10/08 06:46:57;;;;;;;11.20;9.63;;;12.90;80.60;;;11.11;91.60;96965.19;4976183;28;20061;-65
2021/10/08 06:49:23;;;;;;;10.50;9.40;;;13.00;80.40;;;11.13;91.98;96960.56;4973870;28;20099;-66
2021/10/08 06:51:49;;;;;;;12.20;9.88;;;13.00;80.40;;;11.17;91.84;96962.69;4990467;28;20046;-66
2021/10/08 06:54:15;;;;;;;11.68;9.80;;;13.10;80.60;;;11.18;91.98;96964.31;4988454;28;20049;-66
2021/10/08 06:56:40;;;;;;;12.75;10.48;;;13.10;80.40;;;11.23;91.61;96969.06;4956807;28;20048;-66
2021/10/08 06:59:06;;;;;;;11.30;10.00;;;13.10;80.30;;;11.24;91.55;96971.53;4969580;28;20057;-66
2021/10/08 07:01:32;;;;;;;14.18;10.73;;;13.10;80.20;;;11.25;90.96;96974.97;4966514;28;20045;-67
2021/10/08 07:03:58;;;;;;;11.82;10.60;;;13.10;79.90;;;11.27;91.12;96973.00;4959727;28;20033;-66
2021/10/08 07:06:23;;;;;;;14.40;10.48;;;13.10;79.70;;;11.30;91.18;96977.91;4956532;28;20041;-68
2021/10/08 07:08:49;;;;;;;18.63;14.10;;;13.10;79.60;;;11.28;91.09;96970.19;4974035;28;20034;-67
2021/10/08 07:11:15;;;;;;;28.25;24.50;;;13.10;79.80;;;11.36;91.09;96971.97;4973225;28;20053;-67
2021/10/08 07:13:41;;;;;;;19.67;17.63;;;13.20;79.90;;;11.37;90.42;96976.25;4957925;28;20498;-68
2021/10/08 07:16:07;;;;;;;24.33;21.02;;;13.20;79.60;;;11.37;90.04;96973.63;4983698;28;20046;-66
2021/10/08 07:18:34;;;;;;;30.10;26.58;;;13.20;79.80;;;11.41;90.42;96985.44;4979799;28;20376;-65
2021/10/08 07:21:04;;;;;;;28.10;25.17;;;13.30;79.70;;;11.45;90.52;96975.38;4994914;28;20453;-67
2021/10/08 07:23:29;;;;;;;21.70;18.25;;;13.30;79.70;;;11.49;90.66;96972.22;4974865;28;20061;-65
2021/10/08 07:25:55;;;;;;;16.20;14.48;;;13.40;79.40;;;11.51;90.08;96975.50;4953564;28;20038;-64
2021/10/08 07:28:21;;;;;;;16.00;12.48;;;13.40;79.00;;;11.53;89.84;96973.50;4988586;28;20518;-66
2021/10/08 07:30:47;;;;;;;16.63;13.27;;;13.40;79.00;;;11.54;89.90;96975.19;4972368;28;20400;-65
2021/10/08 07:33:13;;;;;;;16.08;14.32;;;13.40;79.20;;;11.56;89.95;96978.47;4958575;28;20506;-67
2021/10/08 07:35:38;;;;;;;27.63;23.48;;;13.50;79.00;;;11.59;89.57;96983.38;4968835;28;21650;-68
2021/10/08 07:38:05;;;;;;;19.65;16.25;;;13.60;79.00;;;11.60;90.14;96987.66;4965521;23;20143;-64
2021/10/08 07:40:31;;;;;;;21.65;17.80;;;13.50;78.70;;;11.64;89.59;96986.31;4922020;28;20046;-64
2021/10/08 07:42:57;;;;;;;16.88;13.82;;;13.60;78.70;;;11.66;89.84;96988.75;4943681;28;20440;-66
2021/10/08 07:45:23;;;;;;;15.02;12.20;;;13.60;78.80;;;11.66;89.84;96984.31;4930867;28;20058;-62
2021/10/08 07:47:49;;;;;;;13.35;12.00;;;13.50;79.00;;;11.69;89.92;96992.88;4984435;28;20038;-63
2021/10/08 07:50:15;;;;;;;14.35;11.85;;;13.60;79.20;;;11.71;90.12;96990.88;4965311;28;20038;-65
2021/10/08 07:52:41;;;;;;;14.45;12.93;;;13.60;79.20;;;11.72;89.99;96995.97;4986161;28;20104;-66
2021/10/08 07:55:10;;;;;;;13.98;12.35;;;13.60;79.10;;;11.74;89.97;96985.25;4976941;28;20106;-66
2021/10/08 07:57:37;;;;;;;13.75;11.35;;;13.60;78.90;;;11.75;90.02;96987.72;4956329;28;20046;-64
2021/10/08 08:00:05;;;;;;;15.27;12.60;;;13.60;79.00;;;11.80;90.18;96995.16;4983555;28;20160;-61
2021/10/08 08:02:31;;;;;;;23.35;18.52;;;13.70;78.90;;;11.82;89.79;96998.44;4979174;28;20080;-65
2021/10/08 08:04:57;;;;;;;22.25;19.35;;;13.70;79.10;;;11.84;89.86;96996.44;4977428;28;20055;-65
2021/10/08 08:07:24;;;;;;;19.65;17.33;;;13.70;79.00;;;11.84;89.70;97001.72;4952566;28;20042;-65
2021/10/08 08:09:50;;;;;;;15.15;13.55;;;13.70;79.10;;;11.87;89.88;97002.19;4960285;28;20058;-67
2021/10/08 08:12:16;;;;;;;14.73;13.18;;;13.70;79.40;;;11.88;90.02;96993.28;4956841;28;20043;-67
2021/10/08 08:14:42;;;;;;;17.63;13.75;;;13.80;79.20;;;11.89;89.55;96996.72;4942661;28;20116;-66
2021/10/08 08:17:08;;;;;;;16.50;14.32;;;13.80;78.80;;;11.87;90.42;96996.91;4924470;28;20042;-66
2021/10/08 08:19:35;;;;;;;20.40;14.40;;;13.80;78.90;;;11.88;89.94;96998.53;4954359;28;20038;-65
2021/10/08 08:22:01;;;;;;;17.77;14.90;;;13.80;79.40;;;11.90;90.34;96999.19;4975611;28;20416;-64
2021/10/08 08:24:27;;;;;;;18.27;15.13;;;13.80;79.40;;;11.92;90.53;96999.81;4979302;28;20049;-63
2021/10/08 08:26:53;;;;;;;20.10;16.25;;;13.80;79.80;;;11.94;90.88;96997.00;4977399;28;20116;-63
2021/10/08 08:29:19;;;;;;;19.17;15.65;;;13.90;79.80;;;11.99;91.00;96993.84;4977809;28;20050;-65
2021/10/08 08:31:48;;;;;;;17.48;14.85;;;13.90;79.70;;;12.05;91.28;96996.63;4991595;28;20041;-65
2021/10/08 08:34:14;;;;;;;16.90;15.30;;;14.10;79.60;;;12.08;90.50;96991.00;4986276;28;20141;-66
2021/10/08 08:36:43;;;;;;;17.60;15.77;;;14.10;79.60;;;12.12;90.70;96994.91;4974109;28;20050;-66
2021/10/08 08:39:15;;;;;;;22.27;15.75;;;14.10;79.10;;;12.12;90.03;96994.91;4959261;28;20597;-67
2021/10/08 08:41:44;;;;;;;18.88;16.27;;;14.10;78.90;;;12.14;90.31;96986.81;4982762;28;20053;-66
2021/10/08 08:44:10;;;;;;;18.90;16.33;;;14.10;79.00;;;12.17;90.47;96995.19;4977309;28;20492;-66
2021/10/08 08:46:37;;;;;;;18.33;16.33;;;14.10;79.10;;;12.17;89.81;96991.75;4974459;28;20120;-62
2021/10/08 08:49:05;;;;;;;19.05;16.73;;;14.10;78.70;;;12.17;90.03;96989.91;4966524;28;20455;-62
2021/10/08 08:51:32;;;;;;;21.25;16.65;;;14.00;79.00;;;12.17;90.34;96982.00;4973960;28;20038;-67
2021/10/08 08:54:01;;;;;;;19.77;16.50;;;14.10;79.20;;;12.17;89.94;96982.00;4991936;28;20038;-64
2021/10/08 08:56:28;;;;;;;19.48;16.42;;;14.10;79.10;;;12.21;90.08;96983.28;4957126;28;20038;-64
2021/10/08 08:59:03;;;;;;;21.58;17.25;;;14.10;78.80;;;12.22;89.59;96987.59;4989180;28;20034;-64
2021/10/08 09:01:30;;;;;;;20.25;16.70;;;14.10;78.70;;;12.25;90.15;96984.59;4972335;28;20398;-64
2021/10/08 09:04:06;;;;;;;20.65;17.08;;;14.20;78.80;;;12.26;90.00;96988.88;4981368;28;20046;-68
2021/10/08 09:06:39;;;;;;;20.42;16.77;;;14.20;78.50;;;12.24;89.74;96987.41;4974893;28;20045;-68
2021/10/08 09:09:19;;;;;;;23.55;17.88;;;14.10;78.90;;;12.24;90.36;96985.59;4969955;28;20061;-62
2021/10/08 09:11:46;;;;;;;21.35;17.90;;;14.10;79.20;;;12.23;90.58;96986.59;4950270;28;20042;-63
2021/10/08 09:14:27;;;;;;;20.08;17.30;;;14.10;79.30;;;12.24;90.06;96992.69;4953204;28;20130;-65
2021/10/08 09:17:15;;;;;;;18.23;16.20;;;14.10;79.50;;;12.20;90.04;96981.66;4942326;28;20035;-62
2021/10/08 09:19:54;;;;;;;18.52;15.73;;;14.00;79.70;;;12.19;90.31;96987.94;4968617;28;20042;-62
2021/10/08 09:22:46;;;;;;;19.05;15.65;;;14.10;79.80;;;12.20;90.66;96981.66;4962106;28;20050;-64
2021/10/08 09:25:20;;;;;;;19.92;17.58;;;14.00;79.80;;;12.21;90.85;96982.47;4986666;28;20054;-61
2021/10/08 09:28:03;;;;;;;19.23;16.92;;;14.10;79.80;;;12.20;90.75;96981.66;4962095;28;20198;-62
2021/10/08 09:30:43;;;;;;;16.52;14.75;;;14.10;79.90;;;12.21;91.05;96972.75;4950909;28;20039;-62
2021/10/08 09:33:15;;;;;;;19.10;14.57;;;14.10;80.20;;;12.23;91.97;96981.31;4970929;28;20039;-62
2021/10/08 09:35:41;;;;;;;15.65;14.05;;;14.20;80.00;;;12.29;90.90;96976.31;4959090;28;20397;-62
2021/10/08 09:38:15;;;;;;;15.55;13.90;;;14.20;79.90;;;12.36;91.87;96977.25;4933480;29;20126;-64
2021/10/08 09:41:08;;;;;;;15.30;13.45;;;14.40;80.10;;;12.43;91.13;96975.53;4941515;28;20927;-64
2021/10/08 09:43:34;;;;;;;27.08;23.52;;;14.40;79.80;;;12.47;91.82;96971.56;4971079;28;20062;-65
2021/10/08 09:46:06;;;;;;;18.55;16.10;;;14.50;79.80;;;12.46;90.87;96978.66;4969202;28;20030;-64
2021/10/08 09:48:42;;;;;;;17.70;15.90;;;14.40;79.00;;;12.47;90.99;96976.84;4944317;28;20611;-64
2021/10/08 09:51:14;;;;;;;17.75;15.93;;;14.40;79.50;;;12.49;91.35;96969.56;4968129;28;20031;-69
2021/10/08 09:53:49;;;;;;;17.75;15.95;;;14.40;79.90;;;12.53;91.37;96978.75;4969436;28;20038;-70
2021/10/08 09:56:37;;;;;;;14.23;12.77;;;14.40;80.00;;;12.53;90.92;96976.09;4977832;28;20030;-67
2021/10/08 09:59:04;;;;;;;13.65;12.25;;;14.50;79.30;;;12.53;90.55;96976.09;4977131;28;20038;-67
2021/10/08 10:01:33;;;;;;;15.55;12.88;;;14.50;79.40;;;12.60;90.87;96976.19;4965756;28;20092;-67
2021/10/08 10:03:59;;;;;;;14.20;12.68;;;14.60;79.50;;;12.64;91.03;96973.00;4970235;28;20062;-67
2021/10/08 10:06:25;;;;;;;13.65;12.18;;;14.60;79.90;;;12.70;91.81;96969.69;4972040;28;20488;-68
2021/10/08 10:08:52;;;;;;;13.15;11.70;;;14.70;79.40;;;12.75;91.00;96967.31;4960053;28;20041;-67
2021/10/08 10:11:26;;;;;;;12.32;11.02;;;14.80;79.10;;;12.83;90.74;96966.38;4979084;28;20045;-66